Ag Nektarios Aiginas — SX7083 — position and weather

sailwx.info

Track history (hours):
 
Tides and Currents Weather Stations Pressure Air Temp Water Temp Dewpoint Dewpoint Depression Visibility Wind Speed Wind Dir Waves Ship Positions

Ag Nektarios Aiginas

Last reported at 2017-Dec-11 17:00 UTC. Time now 2017-Dec-14 09:52 UTC.
Position N 37°45' E 023°25'.

Length 75 m; draft 2.7 m.

Type: Passenger vessel. MMSI: 237021400.

Date/timePositionNaut miles runAvg speedWind from/ knotsBaromVisibWave heightAir tempDewpointWater temp
2017-Dec-11 17:00N 37°45' E 023°25'4 8.6
2017-Dec-11 16:30N 37°48' E 023°29'612.7
2017-Dec-11 16:00N 37°53' E 023°34'510.4
2017-Dec-11 15:30N 37°57' E 023°39'0 0.0
2017-Dec-11 15:00N 37°57' E 023°39'0 0.0
2017-Dec-11 14:30N 37°57' E 023°39'0 0.0
2017-Dec-11 14:00N 37°57' E 023°39'0 0.0
2017-Dec-11 13:30N 37°57' E 023°39'0 0.0
2017-Dec-11 13:00N 37°57' E 023°39'0 0.0
2017-Dec-11 12:30N 37°57' E 023°39'0 0.0
2017-Dec-11 12:00N 37°57' E 023°39'0 0.0
2017-Dec-11 11:30N 37°57' E 023°39'0 0.5
2017-Dec-11 11:00N 37°57' E 023°38'612.2
2017-Dec-11 10:30N 37°52' E 023°33'612.7
2017-Dec-11 10:00N 37°48' E 023°27'3 6.4
2017-Dec-11 09:30N 37°45' E 023°25'0 0.5
2017-Dec-11 09:00N 37°45' E 023°25'510.2
2017-Dec-11 08:30N 37°49' E 023°29'612.5
2017-Dec-11 08:00N 37°53' E 023°34'5 9.2
2017-Dec-11 07:29N 37°57' E 023°39'0 0.0
2017-Dec-11 07:00N 37°57' E 023°39'0 0.0
2017-Dec-10 18:02N 37°57' E 023°39'0 0.3
2017-Dec-10 18:00N 37°57' E 023°39'3 6.8
2017-Dec-10 17:30N 37°54' E 023°36'612.5
2017-Dec-10 17:00N 37°49' E 023°30'612.2
2017-Dec-10 16:31N 37°46' E 023°25'1 2.2
2017-Dec-10 16:00N 37°45' E 023°25'2 3.3
2017-Dec-10 15:30N 37°46' E 023°25'612.7
2017-Dec-10 15:01N 37°50' E 023°32'612.7
2017-Dec-10 14:31N 37°55' E 023°37'2 4.1
2017-Dec-10 14:00N 37°57' E 023°39'5 9.1
2017-Dec-10 13:30N 37°53' E 023°35'612.5
2017-Dec-10 13:01N 37°49' E 023°29'510.7
2017-Dec-10 12:31N 37°45' E 023°25'0 0.7
2017-Dec-10 12:00N 37°45' E 023°25'2 4.7
2017-Dec-10 11:30N 37°47' E 023°27'612.5
2017-Dec-10 11:01N 37°51' E 023°32'612.5
2017-Dec-10 10:30N 37°56' E 023°37'1 2.7
2017-Dec-10 10:00N 37°57' E 023°38'5 9.9
2017-Dec-10 09:30N 37°52' E 023°35'612.4
2017-Dec-10 09:00N 37°48' E 023°29'510.1
2017-Dec-10 08:31N 37°45' E 023°25'0 0.9
2017-Dec-10 08:00N 37°45' E 023°25'611.6
2017-Dec-10 07:31N 37°49' E 023°30'612.4
2017-Dec-10 07:01N 37°54' E 023°35'4 8.2
2017-Dec-10 06:30N 37°57' E 023°39'0 0.0
2017-Dec-10 06:01N 37°57' E 023°39'0 0.0
2017-Dec-10 05:31N 37°57' E 023°39'0 0.0
2017-Dec-09 18:33N 37°57' E 023°39'0 0.1
2017-Dec-09 18:30N 37°57' E 023°39'3 5.6
2017-Dec-09 18:00N 37°55' E 023°36'612.7
2017-Dec-09 17:30N 37°50' E 023°31'713.0
2017-Dec-09 17:00N 37°46' E 023°25'1 2.0
2017-Dec-09 16:30N 37°45' E 023°25'611.4
2017-Dec-09 16:00N 37°49' E 023°30'612.3
2017-Dec-09 15:30N 37°54' E 023°35'4 8.6
2017-Dec-09 15:00N 37°57' E 023°39'0 0.0
2017-Dec-09 14:30N 37°57' E 023°39'0 0.0
2017-Dec-09 14:00N 37°57' E 023°39'4 7.1
2017-Dec-09 13:31N 37°54' E 023°35'612.9
2017-Dec-09 13:00N 37°49' E 023°30'611.7
2017-Dec-09 12:30N 37°45' E 023°25'0 0.9
2017-Dec-09 12:00N 37°45' E 023°25'4 7.1
2017-Dec-09 11:30N 37°48' E 023°28'612.3
2017-Dec-09 11:00N 37°52' E 023°33'611.9
2017-Dec-09 10:30N 37°57' E 023°38'0 0.2
2017-Dec-09 10:00N 37°57' E 023°38'611.3
2017-Dec-09 09:30N 37°52' E 023°33'612.9
2017-Dec-09 09:00N 37°48' E 023°28'4 7.1
2017-Dec-09 08:30N 37°45' E 023°26'1 1.1
2017-Dec-09 08:00N 37°45' E 023°25'611.1
2017-Dec-09 07:30N 37°49' E 023°29'612.5
2017-Dec-09 07:00N 37°53' E 023°35'4 8.8
2017-Dec-09 06:30N 37°57' E 023°39'0 0.0
2017-Dec-09 06:00N 37°57' E 023°39'0 0.0
2017-Dec-09 05:30N 37°57' E 023°39'0 0.0
2017-Dec-08 18:07N 37°57' E 023°38'0 0.1
2017-Dec-08 18:00N 37°57' E 023°39'3 5.0
2017-Dec-08 17:30N 37°55' E 023°36'612.6
2017-Dec-08 17:00N 37°50' E 023°31'612.8
2017-Dec-08 16:30N 37°46' E 023°25'1 2.9
2017-Dec-08 16:00N 37°45' E 023°25'2 3.3
2017-Dec-08 15:30N 37°46' E 023°25'612.6
2017-Dec-08 15:00N 37°50' E 023°32'612.7
2017-Dec-08 14:30N 37°55' E 023°36'2 4.2
2017-Dec-08 14:00N 37°57' E 023°39'3 5.4
2017-Dec-08 13:30N 37°55' E 023°36'612.6
2017-Dec-08 13:00N 37°50' E 023°31'612.9
2017-Dec-08 12:30N 37°46' E 023°25'1 2.6
2017-Dec-08 12:00N 37°45' E 023°25'2 3.2
2017-Dec-08 11:30N 37°46' E 023°25'612.6
2017-Dec-08 11:00N 37°50' E 023°32'612.8
2017-Dec-08 10:30N 37°55' E 023°36'2 4.6
2017-Dec-08 10:00N 37°57' E 023°39'3 6.4
2017-Dec-08 09:30N 37°54' E 023°36'612.4
2017-Dec-08 09:00N 37°50' E 023°31'612.4
2017-Dec-08 08:30N 37°46' E 023°25'1 2.1
2017-Dec-08 08:00N 37°45' E 023°25'3 5.5
2017-Dec-08 07:30N 37°47' E 023°27'612.2
2017-Dec-08 07:00N 37°51' E 023°33'612.4
2017-Dec-08 06:30N 37°56' E 023°37'1 1.9
2017-Dec-08 06:00N 37°57' E 023°39'0 0.0
2017-Dec-08 05:30N 37°57' E 023°39'0 0.0
2017-Dec-07 19:13N 37°57' E 023°39'0 0.3
2017-Dec-07 19:00N 37°57' E 023°38'611.2
2017-Dec-07 18:31N 37°52' E 023°34'612.6
2017-Dec-07 18:01N 37°48' E 023°28'4 7.8
2017-Dec-07 17:31N 37°45' E 023°25'0 0.1
2017-Dec-07 17:00N 37°45' E 023°25'4 8.7
2017-Dec-07 16:30N 37°48' E 023°29'612.8
2017-Dec-07 16:00N 37°53' E 023°34'510.2
2017-Dec-07 15:31N 37°57' E 023°39'0 0.0
2017-Dec-07 15:01N 37°57' E 023°39'0 0.0
2017-Dec-07 14:31N 37°57' E 023°39'0 0.0
2017-Dec-07 14:00N 37°57' E 023°39'0 0.0
2017-Dec-07 13:31N 37°57' E 023°39'0 0.0
2017-Dec-07 13:01N 37°57' E 023°39'0 0.0
2017-Dec-07 12:31N 37°57' E 023°39'0 0.0
2017-Dec-07 12:01N 37°57' E 023°39'0 0.0
2017-Dec-07 11:30N 37°57' E 023°39'0 0.1
2017-Dec-07 11:01N 37°57' E 023°38'611.2
2017-Dec-07 10:31N 37°52' E 023°34'612.6
2017-Dec-07 10:01N 37°48' E 023°28'4 7.8
2017-Dec-07 09:31N 37°45' E 023°25'0 0.1
2017-Dec-07 09:01N 37°45' E 023°25'4 8.2
2017-Dec-07 08:30N 37°48' E 023°29'612.2
2017-Dec-07 08:00N 37°52' E 023°34'611.2
2017-Dec-07 07:30N 37°57' E 023°39'0 0.0
2017-Dec-07 07:01N 37°57' E 023°39'0 0.0
2017-Dec-07 06:30N 37°57' E 023°39'  
2017-Dec-04 10:30N 37°52' E 023°34'612.6
2017-Dec-04 10:00N 37°48' E 023°28'4 7.6
2017-Dec-04 09:30N 37°45' E 023°25'0 0.1
2017-Dec-04 09:00N 37°45' E 023°25'4 8.8
2017-Dec-04 08:31N 37°48' E 023°29'612.6
2017-Dec-04 08:00N 37°53' E 023°34'510.3
2017-Dec-04 07:30N 37°57' E 023°39'0 0.0
2017-Dec-04 07:00N 37°57' E 023°39'0 0.0
2017-Dec-03 17:59N 37°57' E 023°38'3 6.2
2017-Dec-03 17:30N 37°54' E 023°36'612.6
2017-Dec-03 17:00N 37°49' E 023°32'612.8
2017-Dec-03 16:31N 37°46' E 023°25'1 2.5
2017-Dec-03 16:00N 37°45' E 023°25'2 3.3
2017-Dec-03 15:31N 37°46' E 023°26'612.3
2017-Dec-03 15:00N 37°50' E 023°32'612.6
2017-Dec-03 14:30N 37°55' E 023°36'2 4.6
2017-Dec-03 14:01N 37°57' E 023°38'4 7.6
2017-Dec-03 13:31N 37°54' E 023°36'611.0
2017-Dec-03 13:00N 37°49' E 023°32'613.0
2017-Dec-03 12:31N 37°46' E 023°25'1 2.6
2017-Dec-03 12:01N 37°45' E 023°25'2 4.0
2017-Dec-03 11:30N 37°47' E 023°26'612.1
2017-Dec-03 11:01N 37°50' E 023°32'612.2
2017-Dec-03 10:31N 37°55' E 023°36'2 4.3
2017-Dec-03 10:00N 37°57' E 023°38'510.2
2017-Dec-03 09:30N 37°52' E 023°35'612.9
2017-Dec-03 09:00N 37°47' E 023°31'5 9.9
2017-Dec-03 08:31N 37°45' E 023°25'1 1.4
2017-Dec-03 08:00N 37°45' E 023°25'611.6
2017-Dec-03 07:30N 37°48' E 023°31'611.5
2017-Dec-03 07:00N 37°53' E 023°35'5 9.0
2017-Dec-03 06:30N 37°57' E 023°39'0 0.0
2017-Dec-03 06:00N 37°57' E 023°39'0 0.0
2017-Dec-03 05:31N 37°57' E 023°39'0 0.0
2017-Dec-02 18:39N 37°57' E 023°39'0 2.0
2017-Dec-02 18:30N 37°57' E 023°38'611.7
2017-Dec-02 18:01N 37°51' E 023°36'510.7
2017-Dec-02 17:30N 37°47' E 023°32'611.7
2017-Dec-02 17:01N 37°45' E 023°25'0 0.4
2017-Dec-02 16:30N 37°45' E 023°25'611.6
2017-Dec-02 16:00N 37°48' E 023°31'611.3
2017-Dec-02 15:31N 37°53' E 023°34'5 9.8
2017-Dec-02 15:00N 37°57' E 023°39'0 0.0
2017-Dec-02 14:31N 37°57' E 023°39'0 0.4
2017-Dec-02 14:01N 37°57' E 023°38'611.8
2017-Dec-02 13:30N 37°51' E 023°36'510.4
2017-Dec-02 13:00N 37°47' E 023°32'611.5
2017-Dec-02 12:31N 37°45' E 023°25'1 1.7
2017-Dec-02 12:00N 37°45' E 023°25'4 7.9
2017-Dec-02 11:31N 37°47' E 023°29'510.4
2017-Dec-02 11:00N 37°51' E 023°34'611.5
2017-Dec-02 10:30N 37°56' E 023°37'1 2.3
2017-Dec-02 10:00N 37°57' E 023°39'0 0.0
2017-Dec-02 09:31N 37°57' E 023°39'0 0.0
2017-Dec-02 09:00N 37°57' E 023°39'0 0.0
2017-Dec-02 08:31N 37°57' E 023°39'0 0.0
2017-Dec-02 08:00N 37°57' E 023°39'0 0.0
2017-Dec-02 07:30N 37°57' E 023°39'0 0.0
2017-Dec-02 07:01N 37°57' E 023°39'0 0.0
2017-Dec-02 06:30N 37°57' E 023°39'0 0.0
2017-Dec-02 06:01N 37°57' E 023°39'0 0.0
2017-Dec-02 05:31N 37°57' E 023°39'  
Track history (hours):
 
Tides and Currents Weather Stations Pressure Air Temp Water Temp Dewpoint Dewpoint Depression Visibility Wind Speed Wind Dir Waves Ship Positions

Ag Nektarios Aiginas

Last reported at 2017-Dec-11 17:00 UTC. Time now 2017-Dec-14 09:52 UTC.
Position N 37°45' E 023°25'.

Length 75 m; draft 2.7 m.

Type: Passenger vessel. MMSI: 237021400.

Date/timePositionNaut miles runAvg speedWind from/ knotsBaromVisibWave heightAir tempDewpointWater temp
2017-Dec-11 17:00N 37°45' E 023°25'4 8.6
2017-Dec-11 16:30N 37°48' E 023°29'612.7
2017-Dec-11 16:00N 37°53' E 023°34'510.4
2017-Dec-11 15:30N 37°57' E 023°39'0 0.0
2017-Dec-11 15:00N 37°57' E 023°39'0 0.0
2017-Dec-11 14:30N 37°57' E 023°39'0 0.0
2017-Dec-11 14:00N 37°57' E 023°39'0 0.0
2017-Dec-11 13:30N 37°57' E 023°39'0 0.0
2017-Dec-11 13:00N 37°57' E 023°39'0 0.0
2017-Dec-11 12:30N 37°57' E 023°39'0 0.0
2017-Dec-11 12:00N 37°57' E 023°39'0 0.0
2017-Dec-11 11:30N 37°57' E 023°39'0 0.5
2017-Dec-11 11:00N 37°57' E 023°38'612.2
2017-Dec-11 10:30N 37°52' E 023°33'612.7
2017-Dec-11 10:00N 37°48' E 023°27'3 6.4
2017-Dec-11 09:30N 37°45' E 023°25'0 0.5
2017-Dec-11 09:00N 37°45' E 023°25'510.2
2017-Dec-11 08:30N 37°49' E 023°29'612.5
2017-Dec-11 08:00N 37°53' E 023°34'5 9.2
2017-Dec-11 07:29N 37°57' E 023°39'0 0.0
2017-Dec-11 07:00N 37°57' E 023°39'0 0.0
2017-Dec-10 18:02N 37°57' E 023°39'0 0.3
2017-Dec-10 18:00N 37°57' E 023°39'3 6.8
2017-Dec-10 17:30N 37°54' E 023°36'612.5
2017-Dec-10 17:00N 37°49' E 023°30'612.2
2017-Dec-10 16:31N 37°46' E 023°25'1 2.2
2017-Dec-10 16:00N 37°45' E 023°25'2 3.3
2017-Dec-10 15:30N 37°46' E 023°25'612.7
2017-Dec-10 15:01N 37°50' E 023°32'612.7
2017-Dec-10 14:31N 37°55' E 023°37'2 4.1
2017-Dec-10 14:00N 37°57' E 023°39'5 9.1
2017-Dec-10 13:30N 37°53' E 023°35'612.5
2017-Dec-10 13:01N 37°49' E 023°29'510.7
2017-Dec-10 12:31N 37°45' E 023°25'0 0.7
2017-Dec-10 12:00N 37°45' E 023°25'2 4.7
2017-Dec-10 11:30N 37°47' E 023°27'612.5
2017-Dec-10 11:01N 37°51' E 023°32'612.5
2017-Dec-10 10:30N 37°56' E 023°37'1 2.7
2017-Dec-10 10:00N 37°57' E 023°38'5 9.9
2017-Dec-10 09:30N 37°52' E 023°35'612.4
2017-Dec-10 09:00N 37°48' E 023°29'510.1
2017-Dec-10 08:31N 37°45' E 023°25'0 0.9
2017-Dec-10 08:00N 37°45' E 023°25'611.6
2017-Dec-10 07:31N 37°49' E 023°30'612.4
2017-Dec-10 07:01N 37°54' E 023°35'4 8.2
2017-Dec-10 06:30N 37°57' E 023°39'0 0.0
2017-Dec-10 06:01N 37°57' E 023°39'0 0.0
2017-Dec-10 05:31N 37°57' E 023°39'0 0.0
2017-Dec-09 18:33N 37°57' E 023°39'0 0.1
2017-Dec-09 18:30N 37°57' E 023°39'3 5.6
2017-Dec-09 18:00N 37°55' E 023°36'612.7
2017-Dec-09 17:30N 37°50' E 023°31'713.0
2017-Dec-09 17:00N 37°46' E 023°25'1 2.0
2017-Dec-09 16:30N 37°45' E 023°25'611.4
2017-Dec-09 16:00N 37°49' E 023°30'612.3
2017-Dec-09 15:30N 37°54' E 023°35'4 8.6
2017-Dec-09 15:00N 37°57' E 023°39'0 0.0
2017-Dec-09 14:30N 37°57' E 023°39'0 0.0
2017-Dec-09 14:00N 37°57' E 023°39'4 7.1
2017-Dec-09 13:31N 37°54' E 023°35'612.9
2017-Dec-09 13:00N 37°49' E 023°30'611.7
2017-Dec-09 12:30N 37°45' E 023°25'0 0.9
2017-Dec-09 12:00N 37°45' E 023°25'4 7.1
2017-Dec-09 11:30N 37°48' E 023°28'612.3
2017-Dec-09 11:00N 37°52' E 023°33'611.9
2017-Dec-09 10:30N 37°57' E 023°38'0 0.2
2017-Dec-09 10:00N 37°57' E 023°38'611.3
2017-Dec-09 09:30N 37°52' E 023°33'612.9
2017-Dec-09 09:00N 37°48' E 023°28'4 7.1
2017-Dec-09 08:30N 37°45' E 023°26'1 1.1
2017-Dec-09 08:00N 37°45' E 023°25'611.1
2017-Dec-09 07:30N 37°49' E 023°29'612.5
2017-Dec-09 07:00N 37°53' E 023°35'4 8.8
2017-Dec-09 06:30N 37°57' E 023°39'0 0.0
2017-Dec-09 06:00N 37°57' E 023°39'0 0.0
2017-Dec-09 05:30N 37°57' E 023°39'0 0.0
2017-Dec-08 18:07N 37°57' E 023°38'0 0.1
2017-Dec-08 18:00N 37°57' E 023°39'3 5.0
2017-Dec-08 17:30N 37°55' E 023°36'612.6
2017-Dec-08 17:00N 37°50' E 023°31'612.8
2017-Dec-08 16:30N 37°46' E 023°25'1 2.9
2017-Dec-08 16:00N 37°45' E 023°25'2 3.3
2017-Dec-08 15:30N 37°46' E 023°25'612.6
2017-Dec-08 15:00N 37°50' E 023°32'612.7
2017-Dec-08 14:30N 37°55' E 023°36'2 4.2
2017-Dec-08 14:00N 37°57' E 023°39'3 5.4
2017-Dec-08 13:30N 37°55' E 023°36'612.6
2017-Dec-08 13:00N 37°50' E 023°31'612.9
2017-Dec-08 12:30N 37°46' E 023°25'1 2.6
2017-Dec-08 12:00N 37°45' E 023°25'2 3.2
2017-Dec-08 11:30N 37°46' E 023°25'612.6
2017-Dec-08 11:00N 37°50' E 023°32'612.8
2017-Dec-08 10:30N 37°55' E 023°36'2 4.6
2017-Dec-08 10:00N 37°57' E 023°39'3 6.4
2017-Dec-08 09:30N 37°54' E 023°36'612.4
2017-Dec-08 09:00N 37°50' E 023°31'612.4
2017-Dec-08 08:30N 37°46' E 023°25'1 2.1
2017-Dec-08 08:00N 37°45' E 023°25'3 5.5
2017-Dec-08 07:30N 37°47' E 023°27'612.2
2017-Dec-08 07:00N 37°51' E 023°33'612.4
2017-Dec-08 06:30N 37°56' E 023°37'1 1.9
2017-Dec-08 06:00N 37°57' E 023°39'0 0.0
2017-Dec-08 05:30N 37°57' E 023°39'0 0.0
2017-Dec-07 19:13N 37°57' E 023°39'0 0.3
2017-Dec-07 19:00N 37°57' E 023°38'611.2
2017-Dec-07 18:31N 37°52' E 023°34'612.6
2017-Dec-07 18:01N 37°48' E 023°28'4 7.8
2017-Dec-07 17:31N 37°45' E 023°25'0 0.1
2017-Dec-07 17:00N 37°45' E 023°25'4 8.7
2017-Dec-07 16:30N 37°48' E 023°29'612.8
2017-Dec-07 16:00N 37°53' E 023°34'510.2
2017-Dec-07 15:31N 37°57' E 023°39'0 0.0
2017-Dec-07 15:01N 37°57' E 023°39'0 0.0
2017-Dec-07 14:31N 37°57' E 023°39'0 0.0
2017-Dec-07 14:00N 37°57' E 023°39'0 0.0
2017-Dec-07 13:31N 37°57' E 023°39'0 0.0
2017-Dec-07 13:01N 37°57' E 023°39'0 0.0
2017-Dec-07 12:31N 37°57' E 023°39'0 0.0
2017-Dec-07 12:01N 37°57' E 023°39'0 0.0
2017-Dec-07 11:30N 37°57' E 023°39'0 0.1
2017-Dec-07 11:01N 37°57' E 023°38'611.2
2017-Dec-07 10:31N 37°52' E 023°34'612.6
2017-Dec-07 10:01N 37°48' E 023°28'4 7.8
2017-Dec-07 09:31N 37°45' E 023°25'0 0.1
2017-Dec-07 09:01N 37°45' E 023°25'4 8.2
2017-Dec-07 08:30N 37°48' E 023°29'612.2
2017-Dec-07 08:00N 37°52' E 023°34'611.2
2017-Dec-07 07:30N 37°57' E 023°39'0 0.0
2017-Dec-07 07:01N 37°57' E 023°39'0 0.0
2017-Dec-07 06:30N 37°57' E 023°39'  
2017-Dec-04 10:30N 37°52' E 023°34'612.6
2017-Dec-04 10:00N 37°48' E 023°28'4 7.6
2017-Dec-04 09:30N 37°45' E 023°25'0 0.1
2017-Dec-04 09:00N 37°45' E 023°25'4 8.8
2017-Dec-04 08:31N 37°48' E 023°29'612.6
2017-Dec-04 08:00N 37°53' E 023°34'510.3
2017-Dec-04 07:30N 37°57' E 023°39'0 0.0
2017-Dec-04 07:00N 37°57' E 023°39'0 0.0
2017-Dec-03 17:59N 37°57' E 023°38'3 6.2
2017-Dec-03 17:30N 37°54' E 023°36'612.6
2017-Dec-03 17:00N 37°49' E 023°32'612.8
2017-Dec-03 16:31N 37°46' E 023°25'1 2.5
2017-Dec-03 16:00N 37°45' E 023°25'2 3.3
2017-Dec-03 15:31N 37°46' E 023°26'612.3
2017-Dec-03 15:00N 37°50' E 023°32'612.6
2017-Dec-03 14:30N 37°55' E 023°36'2 4.6
2017-Dec-03 14:01N 37°57' E 023°38'4 7.6
2017-Dec-03 13:31N 37°54' E 023°36'611.0
2017-Dec-03 13:00N 37°49' E 023°32'613.0
2017-Dec-03 12:31N 37°46' E 023°25'1 2.6
2017-Dec-03 12:01N 37°45' E 023°25'2 4.0
2017-Dec-03 11:30N 37°47' E 023°26'612.1
2017-Dec-03 11:01N 37°50' E 023°32'612.2
2017-Dec-03 10:31N 37°55' E 023°36'2 4.3
2017-Dec-03 10:00N 37°57' E 023°38'510.2
2017-Dec-03 09:30N 37°52' E 023°35'612.9
2017-Dec-03 09:00N 37°47' E 023°31'5 9.9
2017-Dec-03 08:31N 37°45' E 023°25'1 1.4
2017-Dec-03 08:00N 37°45' E 023°25'611.6
2017-Dec-03 07:30N 37°48' E 023°31'611.5
2017-Dec-03 07:00N 37°53' E 023°35'5 9.0
2017-Dec-03 06:30N 37°57' E 023°39'0 0.0
2017-Dec-03 06:00N 37°57' E 023°39'0 0.0
2017-Dec-03 05:31N 37°57' E 023°39'0 0.0
2017-Dec-02 18:39N 37°57' E 023°39'0 2.0
2017-Dec-02 18:30N 37°57' E 023°38'611.7
2017-Dec-02 18:01N 37°51' E 023°36'510.7
2017-Dec-02 17:30N 37°47' E 023°32'611.7
2017-Dec-02 17:01N 37°45' E 023°25'0 0.4
2017-Dec-02 16:30N 37°45' E 023°25'611.6
2017-Dec-02 16:00N 37°48' E 023°31'611.3
2017-Dec-02 15:31N 37°53' E 023°34'5 9.8
2017-Dec-02 15:00N 37°57' E 023°39'0 0.0
2017-Dec-02 14:31N 37°57' E 023°39'0 0.4
2017-Dec-02 14:01N 37°57' E 023°38'611.8
2017-Dec-02 13:30N 37°51' E 023°36'510.4
2017-Dec-02 13:00N 37°47' E 023°32'611.5
2017-Dec-02 12:31N 37°45' E 023°25'1 1.7
2017-Dec-02 12:00N 37°45' E 023°25'4 7.9
2017-Dec-02 11:31N 37°47' E 023°29'510.4
2017-Dec-02 11:00N 37°51' E 023°34'611.5
2017-Dec-02 10:30N 37°56' E 023°37'1 2.3
2017-Dec-02 10:00N 37°57' E 023°39'0 0.0
2017-Dec-02 09:31N 37°57' E 023°39'0 0.0
2017-Dec-02 09:00N 37°57' E 023°39'0 0.0
2017-Dec-02 08:31N 37°57' E 023°39'0 0.0
2017-Dec-02 08:00N 37°57' E 023°39'0 0.0
2017-Dec-02 07:30N 37°57' E 023°39'0 0.0
2017-Dec-02 07:01N 37°57' E 023°39'0 0.0
2017-Dec-02 06:30N 37°57' E 023°39'0 0.0
2017-Dec-02 06:01N 37°57' E 023°39'0 0.0
2017-Dec-02 05:31N 37°57' E 023°39'  

Dump ship's entire track history